Weather at Millington-Memphis Airport

Public forecast

Using degrees Fahrenheit for public forecast. Weather courtesy of forecast.io.

Current aviation weather report (METAR) for Millington-Memphis Airport

Retrieved 2021/10/16 02:35 UTC (14 minutes ago):

KNQA 160235Z AUTO 9SM BKN009 BKN012 OVC018 16/15 A2997 RMK A01

Closest aviation forecast (TAF) to Millington-Memphis Airport

Closest forecast is Memphis International Airport, 19.6 nm (36.3 km) SSW. Retrieved 2021-10-16 00:33 UTC (2 hours ago):

TAF KMEM 152331Z 1600/1706 31012G18KT 2SM -TSRA SCT025CB BKN035 FM160015 30012G18KT 6SM -SHRA BR VCTS SCT025CB BKN035 FM160130 32017G27KT P6SM VCSH BKN020 FM160400 33014G21KT P6SM SCT020 FM160800 34010KT P6SM SKC FM161500 35012G18KT P6SM SKC FM170000 32005KT P6SM SKC